ususleCam  ususleCam


Besuchen Sie unsere anderen Wetter Stationen:

Template documentation
and downloads

And another site



METAR-Meldungen aus der Umgebung

   
LSZH - Zurich-Kloten (a, Switzerland
Entfernung von der Station bis: NW 47 km
Aktualisierung: 13-08-2020 18:20
Klar  
Klar  
   Wind: SO 9 km/h
Wind: SO 9 km/h
Temperatur: 23°C
Taupunkt: 16°C
Luftfeuchte: 65%
Luftdruck: 1017 hPa
Sichtbarkeit: More than 10 km
Bewölkung: Klar
LSZH 131620Z 14005KT 110V180 CAVOK 23/16 Q1017 NOSIG
LSZL - Locarno, Switzerland
Entfernung von der Station bis: S 119 km
Aktualisierung: 13-08-2020 18:20
Teilweise bewölkt  
Teilweise bewölkt  
   Wind: WSW 7 km/h
Wind: WSW 7 km/h
Temperatur: 27°C
Hitzeindex: 28°C
Taupunkt: 19°C
Luftfeuchte: 62%
Luftdruck: 1015 hPa
Bewölkung: Teilweise bewölkt
Sichtbarkeit: 10 km
Bewölkung: Teilweise bewölkt 16000 ft
LSZL 131620Z AUTO 24004KT 9999NDV SCT160 27/19 Q1015 RMK
LSZS - Samedan, Switzerland
Entfernung von der Station bis: SO 101 km
Aktualisierung: 13-08-2020 18:50
leicht bewölkt  
leicht bewölkt  
   Wind: variiert 6 km/h
Wind: variiert 6 km/h
Temperatur: 17°C
Taupunkt: 10°C
Luftfeuchte: 64%
Luftdruck: 1022 hPa
Bewölkung: leicht bewölkt
Sichtbarkeit: More than 10 km
Bewölkung: leicht bewölkt 6000 ft
LSZS 131650Z VRB03KT 9999 FEW060 17/10 Q1022 RMK W TL170
LSME - Emmen, Switzerland
Entfernung von der Station bis: WSW 58 km
Aktualisierung: 07-08-2020 07:20
Nicht aktuell
  
  
   Wind: Windstille
Wind: Windstille
Temperatur: 16°C
Taupunkt: 14°C
Luftfeuchte: 88%
Luftdruck: 1021 hPa
Sichtbarkeit: 10 km
LSME 070520Z AUTO 00000KT 9999NDV ////// 16/14 Q1021 RMK MIS
LSZB - Bern/Belp, Switzerland
Entfernung von der Station bis: WSW 122 km
Aktualisierung: 13-08-2020 18:50
Stark bewölkt  
Stark bewölkt  
   Wind: NNW 9 km/h
Wind: NNW 9 km/h
Temperatur: 25°C
Taupunkt: 17°C
Luftfeuchte: 61%
Luftdruck: 1016 hPa
Bewölkung: Stark bewölkt
Sichtbarkeit: More than 10 km
Bewölkung: Teilweise bewölkt 8000 ft,
Stark bewölkt 9000 ft
LSZB 131650Z 33005KT 9999 SCT080 BKN090 25/17 Q1016 NOSIG
LFSB - Bale/Mulhouse, France
Entfernung von der Station bis: WNW 121 km
Aktualisierung: 13-08-2020 18:30
Nearby Showers, Stark bewölkt  
Nearby Showers, Stark bewölkt  
   Wind: Osten 20 km/h
Wind: Osten 20 km/h
Temperatur: 28°C
Hitzeindex: 28°C
Taupunkt: 15°C
Luftfeuchte: 45%
Luftdruck: 1015 hPa
Bewölkung: Stark bewölkt
Sichtbarkeit: More than 10 km
Bewölkung: leicht bewölkt 8000 ft,
Stark bewölkt 14000 ft
LFSB 131630Z 10011KT 070V130 9999 VCSH FEW080CB BKN140 28/15 Q1015 TEMPO VRB20G35KT 2000 TSRA SCT070CB

Script entwickelt von  Saratoga-weather.org Angepasst für das Template von  Weerstation Leuven

Von uns verwendete Ausrüstung:

Wetterstation
Davis Vue

Wetterprogramm
Weather Display

Davis Vue

Weather Display